| time (UTC) | temp C | wind direction | speed KPH | gust KPH | rain 1hr cm | rain 24hr cm | rain mn cm | humidity % | barometer mb |
| 20260509031324 | 23 | 310 | 3.2 | 8.0 | 0.00 | 0.00 | 0.00 | 28 | 1019.8 |
| 20260509030320 | 23 | 321 | 1.6 | 9.7 | 0.00 | 0.00 | 0.00 | 29 | 1019.9 |
| 20260509024314 | 23 | 311 | 3.2 | 11.3 | 0.00 | 0.00 | 0.00 | 29 | 1020.1 |
| 20260509022308 | 22 | 303 | 1.6 | 8.0 | 0.00 | 0.00 | 0.00 | 30 | 1020.4 |
| 20260509014255 | 22 | 112 | 0.0 | 11.3 | 0.00 | 0.00 | 0.00 | 30 | 1020.7 |
| 20260509004237 | 21 | 112 | 4.8 | 6.4 | 0.00 | 0.00 | 0.00 | 34 | 1021.3 |
| 20260509002231 | 20 | 334 | 0.0 | 4.8 | 0.00 | 0.00 | 0.00 | 39 | 1021.7 |
| 20260508232212 | 16 | 132 | 0.0 | 4.8 | 0.00 | 0.00 | 0.00 | 50 | 1022.2 |
| 20260508230206 | 15 | 127 | 1.6 | 3.2 | 0.00 | 0.00 | 0.00 | 52 | 1022.3 |
| 20260508225203 | 14 | 180 | 1.6 | 4.8 | 0.00 | 0.00 | 0.00 | 56 | 1022.3 |
| 20260508223157 | 12 | 111 | 1.6 | 3.2 | 0.00 | 0.00 | 0.00 | 67 | 1022.6 |
| 20260508222153 | 11 | 90 | 0.0 | 1.6 | 0.00 | 0.00 | 0.00 | 72 | 1022.7 |
| 20260508220147 | 8 | 112 | 0.0 | 0.0 | 0.00 | 0.00 | 0.00 | 80 | 1022.8 |
| 20260508214141 | 5 | 90 | 0.0 | 0.0 | 0.00 | 0.00 | 0.00 | 88 | 1023.1 |
| 20260508210128 | 0 | 135 | 0.0 | 0.0 | 0.00 | 0.00 | 0.00 | 90 | 1023.5 |
| 20260508205125 | 0 | 135 | 0.0 | 0.0 | 0.00 | 0.00 | 0.00 | 89 | 1023.3 |
| 20260508204122 | -1 | 135 | 0.0 | 0.0 | 0.00 | 0.00 | 0.00 | 89 | 1023.3 |
| 20260508202116 | -1 | 135 | 0.0 | 0.0 | 0.00 | 0.00 | 0.00 | 88 | 1023.1 |
| 20260508200111 | -1 | 135 | 0.0 | 0.0 | 0.00 | 0.00 | 0.00 | 87 | 1023.1 |
| 20260508195107 | 0 | 135 | 0.0 | 0.0 | 0.00 | 0.00 | 0.00 | 87 | 1022.8 |
| 20260508194104 | 0 | 135 | 0.0 | 0.0 | 0.00 | 0.00 | 0.00 | 87 | 1022.6 |
| 20260508192057 | 0 | 135 | 0.0 | 0.0 | 0.00 | 0.00 | 0.00 | 86 | 1022.3 |
| 20260508190051 | 0 | 135 | 0.0 | 0.0 | 0.00 | 0.00 | 0.00 | 87 | 1022.4 |
| 20260508182041 | 0 | 180 | 0.0 | 0.0 | 0.00 | 0.00 | 0.00 | 85 | 1022.1 |
| 20260508175029 | 0 | 90 | 0.0 | 0.0 | 0.00 | 0.00 | 0.00 | 84 | 1022.1 |
| 20260508174026 | 0 | 90 | 0.0 | 0.0 | 0.00 | 0.00 | 0.00 | 84 | 1022.0 |
| 20260508171017 | 1 | 180 | 1.6 | 3.2 | 0.00 | 0.00 | 0.00 | 85 | 1021.8 |
| 20260508165013 | 0 | 112 | 0.0 | 0.0 | 0.00 | 0.00 | 0.00 | 83 | 1021.7 |
| 20260508155955 | 1 | 180 | 1.6 | 3.2 | 0.00 | 0.00 | 0.00 | 83 | 1021.6 |
| 20260508153949 | 1 | 90 | 0.0 | 0.0 | 0.00 | 0.00 | 0.00 | 81 | 1021.9 |
| 20260508151943 | 1 | 180 | 0.0 | 0.0 | 0.00 | 0.00 | 0.00 | 81 | 1022.0 |
| 20260508141924 | 1 | 112 | 0.0 | 0.0 | 0.00 | 0.00 | 0.00 | 77 | 1021.9 |
| 20260508135918 | 1 | 180 | 0.0 | 0.0 | 0.00 | 0.00 | 0.00 | 76 | 1022.1 |
| 20260508134915 | 2 | 180 | 0.0 | 0.0 | 0.00 | 0.00 | 0.00 | 76 | 1021.9 |
| 20260508083739 | 11 | 225 | 0.0 | 1.6 | 0.00 | 0.00 | 0.00 | 50 | 1020.1 |
| 20260508075726 | 13 | 0 | 0.0 | 0.0 | 0.00 | 0.00 | 0.00 | 44 | 1019.4 |
| 20260508070711 | 15 | 112 | 0.0 | 3.2 | 0.00 | 0.00 | 0.00 | 40 | 1018.5 |
| 20260508065710 | 16 | 189 | 6.4 | 8.0 | 0.00 | 0.00 | 0.00 | 39 | 1018.4 |
| 20260508064705 | 16 | 225 | 0.0 | 9.7 | 0.00 | 0.00 | 0.00 | 38 | 1018.3 |
| 20260508062701 | 16 | 257 | 14.5 | 14.5 | 0.00 | 0.00 | 0.00 | 39 | 1018.0 |
| 20260508061655 | 16 | 217 | 8.0 | 11.3 | 0.00 | 0.00 | 0.00 | 38 | 1017.9 |
| 20260508055649 | 17 | 210 | 8.0 | 12.9 | 0.00 | 0.00 | 0.00 | 36 | 1017.8 |
| 20260508053643 | 18 | 139 | 6.4 | 11.3 | 0.00 | 0.00 | 0.00 | 34 | 1017.4 |
| 20260508043627 | 19 | 178 | 4.8 | 14.5 | 0.00 | 0.00 | 0.00 | 33 | 1017.2 |
| 20260508042621 | 18 | 213 | 6.4 | 14.5 | 0.00 | 0.00 | 0.00 | 33 | 1017.3 |